createdAt,value
2018-09-30T00:00:29.468Z,94204.60
2018-09-30T00:02:56.995Z,94209.47
2018-09-30T00:05:24.554Z,94201.34
2018-09-30T00:07:52.390Z,94201.66
2018-09-30T00:10:19.918Z,94209.17
2018-09-30T00:12:47.481Z,94202.97
2018-09-30T00:15:15.074Z,94205.43
2018-09-30T00:17:42.613Z,94205.89
2018-09-30T00:20:10.147Z,94204.92
2018-09-30T00:22:37.705Z,94196.44
2018-09-30T00:25:10.986Z,94192.84
2018-09-30T00:27:38.531Z,94192.84
2018-09-30T00:30:06.097Z,94200.66
2018-09-30T00:32:33.619Z,94192.84
2018-09-30T00:35:01.185Z,94198.70
2018-09-30T00:37:28.770Z,94192.20
2018-09-30T00:39:56.299Z,94187.28
2018-09-30T00:42:23.881Z,94189.24
2018-09-30T00:44:51.413Z,94182.09
2018-09-30T00:47:18.963Z,94178.52
2018-09-30T00:49:46.502Z,94179.50
2018-09-30T00:52:14.019Z,94182.11
2018-09-30T00:54:42.650Z,94175.25
2018-09-30T00:57:10.161Z,94171.33
2018-09-30T00:59:37.694Z,94166.43
2018-09-30T01:02:05.294Z,94158.25
2018-09-30T01:04:32.829Z,94155.98
2018-09-30T01:07:00.354Z,94153.22
2018-09-30T01:09:27.974Z,94149.63
2018-09-30T01:11:55.514Z,94151.74
2018-09-30T01:14:23.047Z,94157.44
2018-09-30T01:16:50.590Z,94152.25
2018-09-30T01:19:18.165Z,94149.13
2018-09-30T01:21:45.751Z,94148.14
2018-09-30T01:24:13.294Z,94142.92
2018-09-30T01:26:40.805Z,94142.33
2018-09-30T01:29:08.390Z,94142.97
2018-09-30T01:31:35.904Z,94143.28
2018-09-30T01:34:03.475Z,94141.34
2018-09-30T01:36:31.603Z,94147.52
2018-09-30T01:38:59.149Z,94143.94
2018-09-30T01:41:26.718Z,94147.86
2018-09-30T01:43:54.278Z,94145.56
2018-09-30T01:46:21.850Z,94139.66
2018-09-30T01:48:49.390Z,94132.50
2018-09-30T01:51:16.946Z,94136.38
2018-09-30T01:53:44.501Z,94126.60
2018-09-30T01:56:12.054Z,94125.93
2018-09-30T01:58:39.583Z,94126.63
2018-09-30T02:01:07.114Z,94116.66
2018-09-30T02:03:34.714Z,94116.03
2018-09-30T02:06:02.281Z,94120.12
2018-09-30T02:08:29.855Z,94115.39
2018-09-30T02:10:57.419Z,94119.78
2018-09-30T02:13:24.966Z,94120.12
2018-09-30T02:15:52.507Z,94123.33
2018-09-30T02:18:20.023Z,94121.88
2018-09-30T02:20:47.585Z,94125.93
2018-09-30T02:23:15.094Z,94124.81
2018-09-30T02:25:42.684Z,94126.93
2018-09-30T02:28:10.225Z,94121.72
2018-09-30T02:30:37.790Z,94112.94
2018-09-30T02:33:05.634Z,94115.03
2018-09-30T02:35:33.143Z,94109.34
2018-09-30T02:38:00.674Z,94110.94
2018-09-30T02:40:28.234Z,94104.73
2018-09-30T02:42:55.765Z,94112.20
2018-09-30T02:45:23.307Z,94113.20
2018-09-30T02:47:50.846Z,94111.23
2018-09-30T02:50:18.366Z,94114.36
2018-09-30T02:52:46.091Z,94114.29
2018-09-30T02:55:13.608Z,94117.36
2018-09-30T02:57:41.174Z,94115.41
2018-09-30T03:00:08.855Z,94106.28
2018-09-30T03:02:36.394Z,94098.81
2018-09-30T03:05:04.003Z,94092.30
2018-09-30T03:07:37.127Z,94096.21
2018-09-30T03:10:04.760Z,94085.53
2018-09-30T03:12:32.318Z,94086.13
2018-09-30T03:14:59.847Z,94076.78
2018-09-30T03:17:27.405Z,94087.17
2018-09-30T03:19:54.934Z,94074.23
2018-09-30T03:22:22.466Z,94074.41
2018-09-30T03:24:49.986Z,94068.88
2018-09-30T03:27:17.554Z,94071.77
2018-09-30T03:29:45.100Z,94072.73
2018-09-30T03:32:12.723Z,94073.38
2018-09-30T03:34:40.247Z,94070.13
2018-09-30T03:37:07.803Z,94069.16
2018-09-30T03:39:35.398Z,94067.83
2018-09-30T03:42:02.914Z,94062.61
2018-09-30T03:44:30.460Z,94057.41
2018-09-30T03:46:58.034Z,94055.96
2018-09-30T03:49:25.547Z,94058.56
2018-09-30T03:51:53.141Z,94057.03
2018-09-30T03:54:20.674Z,94057.35
2018-09-30T03:56:48.289Z,94055.37
2018-09-30T03:59:15.785Z,94057.30
2018-09-30T04:01:43.311Z,94049.17
2018-09-30T04:04:10.862Z,94054.27
2018-09-30T04:06:38.396Z,94054.75
2018-09-30T04:09:06.663Z,94049.55
2018-09-30T04:11:34.188Z,94054.09
2018-09-30T04:14:01.718Z,94041.23
2018-09-30T04:16:29.256Z,94044.97
2018-09-30T04:18:57.133Z,94033.89
2018-09-30T04:21:24.650Z,94031.63
2018-09-30T04:23:56.518Z,94030.00
2018-09-30T04:26:24.066Z,94022.25
2018-09-30T04:28:51.627Z,94027.06
2018-09-30T04:31:19.166Z,94022.53
2018-09-30T04:33:46.802Z,94013.72
2018-09-30T04:36:14.358Z,94017.61
2018-09-30T04:38:41.915Z,94013.70
2018-09-30T04:41:09.457Z,94016.27
2018-09-30T04:43:37.023Z,94011.41
2018-09-30T04:46:04.546Z,94012.36
2018-09-30T04:48:32.083Z,94008.46
2018-09-30T04:51:00.013Z,94001.32
2018-09-30T04:53:27.540Z,94008.11
2018-09-30T04:55:55.134Z,94009.42
2018-09-30T04:58:22.677Z,94008.11
2018-09-30T05:00:50.246Z,94007.41
2018-09-30T05:03:17.804Z,94010.98
2018-09-30T05:05:45.396Z,94009.06
2018-09-30T05:08:12.934Z,94010.70
2018-09-30T05:10:40.455Z,94007.09
2018-09-30T05:13:08.302Z,94013.92
2018-09-30T05:15:35.900Z,94010.19
2018-09-30T05:18:03.440Z,94005.16
2018-09-30T05:20:30.991Z,94004.16
2018-09-30T05:22:58.539Z,94002.62
2018-09-30T05:25:26.063Z,94003.59
2018-09-30T05:27:53.594Z,94004.56
2018-09-30T05:30:21.122Z,94002.30
2018-09-30T05:32:48.677Z,94002.97
2018-09-30T05:35:16.214Z,94004.56
2018-09-30T05:37:43.750Z,94001.66
2018-09-30T05:40:11.364Z,93997.44
2018-09-30T05:42:38.913Z,93994.20
2018-09-30T05:45:06.815Z,93999.06
2018-09-30T05:47:34.398Z,93999.41
2018-09-30T05:50:01.938Z,94004.80
2018-09-30T05:52:29.611Z,94004.32
2018-09-30T05:54:57.142Z,94003.73
2018-09-30T05:57:24.766Z,93999.23
2018-09-30T05:59:52.291Z,94000.91
2018-09-30T06:02:19.837Z,94006.80
2018-09-30T06:04:47.391Z,94011.34
2018-09-30T06:07:14.973Z,94011.32
2018-09-30T06:09:42.519Z,94011.61
2018-09-30T06:12:10.117Z,94016.36
2018-09-30T06:14:37.646Z,93999.91
2018-09-30T06:17:05.228Z,94007.38
2018-09-30T06:19:32.777Z,94004.16
2018-09-30T06:22:00.462Z,94005.27
2018-09-30T06:24:27.997Z,94006.53
2018-09-30T06:26:55.663Z,94002.45
2018-09-30T06:29:23.226Z,94005.52
2018-09-30T06:31:51.081Z,94001.94
2018-09-30T06:34:18.591Z,94003.17
2018-09-30T06:36:46.155Z,94004.59
2018-09-30T06:39:13.693Z,93997.80
2018-09-30T06:41:41.249Z,93997.91
2018-09-30T06:44:08.981Z,94001.66
2018-09-30T06:46:36.524Z,94003.09
2018-09-30T06:49:04.054Z,93999.23
2018-09-30T06:51:31.639Z,93999.30
2018-09-30T06:53:59.183Z,93998.39
2018-09-30T06:56:26.750Z,93993.77
2018-09-30T06:58:54.267Z,93994.59
2018-09-30T07:01:21.807Z,93989.11
2018-09-30T07:03:49.382Z,93982.75
2018-09-30T07:06:16.932Z,93978.73
2018-09-30T07:08:44.485Z,93975.11
2018-09-30T07:11:12.073Z,93974.14
2018-09-30T07:13:39.629Z,93977.67
2018-09-30T07:16:07.183Z,93981.58
2018-09-30T07:18:34.722Z,93979.82
2018-09-30T07:21:02.263Z,93978.63
2018-09-30T07:23:29.799Z,93970.19
2018-09-30T07:25:57.442Z,93969.47
2018-09-30T07:28:24.982Z,93973.52
2018-09-30T07:30:52.574Z,93975.70
2018-09-30T07:33:20.346Z,93970.33
2018-09-30T07:35:47.866Z,93972.92
2018-09-30T07:38:15.408Z,93979.73
2018-09-30T07:40:42.966Z,93974.20
2018-09-30T07:43:10.562Z,93977.88
2018-09-30T07:45:38.123Z,93969.46
2018-09-30T07:48:05.718Z,93965.58
2018-09-30T07:50:33.270Z,93963.09
2018-09-30T07:53:00.975Z,93961.98
2018-09-30T07:55:28.535Z,93965.09
2018-09-30T07:57:56.070Z,93961.62
2018-09-30T08:00:23.645Z,93960.27
2018-09-30T08:02:51.205Z,93955.17
2018-09-30T08:05:18.758Z,93953.50
2018-09-30T08:07:46.330Z,93949.36
2018-09-30T08:10:13.895Z,93949.44
2018-09-30T08:12:42.433Z,93943.78
2018-09-30T08:15:09.996Z,93942.38
2018-09-30T08:17:37.558Z,93941.16
2018-09-30T08:20:05.514Z,93940.74
2018-09-30T08:22:33.082Z,93944.42
2018-09-30T08:25:00.642Z,93945.20
2018-09-30T08:27:28.224Z,93948.53
2018-09-30T08:29:56.038Z,93942.20
2018-09-30T08:32:23.601Z,93945.91
2018-09-30T08:34:51.235Z,93951.19
2018-09-30T08:37:24.650Z,93949.67
2018-09-30T08:39:52.308Z,93951.61
2018-09-30T08:42:19.798Z,93957.13
2018-09-30T08:44:47.353Z,93958.09
2018-09-30T08:47:15.002Z,93958.64
2018-09-30T08:49:42.475Z,93956.94
2018-09-30T08:52:10.039Z,93968.06
2018-09-30T08:54:37.595Z,93957.34
2018-09-30T08:57:05.153Z,93952.59
2018-09-30T08:59:32.712Z,93958.97
2018-09-30T09:02:00.267Z,93954.49
2018-09-30T09:04:27.815Z,93950.84
2018-09-30T09:06:55.455Z,93957.70
2018-09-30T09:09:23.016Z,93951.64
2018-09-30T09:11:50.564Z,93951.45
2018-09-30T09:14:18.126Z,93948.28
2018-09-30T09:16:45.683Z,93949.82
2018-09-30T09:19:13.247Z,93947.01
2018-09-30T09:21:41.140Z,93944.11
2018-09-30T09:24:08.686Z,93946.41
2018-09-30T09:26:36.230Z,93944.81
2018-09-30T09:29:04.125Z,93938.75
2018-09-30T09:31:31.674Z,93940.75
2018-09-30T09:33:59.212Z,93939.25
2018-09-30T09:36:27.105Z,93934.59
2018-09-30T09:38:54.645Z,93934.30
2018-09-30T09:41:22.186Z,93939.09
2018-09-30T09:43:49.819Z,93938.59
2018-09-30T09:46:17.399Z,93933.54
2018-09-30T09:48:44.943Z,93937.77
2018-09-30T09:51:12.481Z,93941.52
2018-09-30T09:53:40.082Z,93934.72
2018-09-30T09:56:07.630Z,93937.98
2018-09-30T09:58:35.189Z,93928.88
2018-09-30T10:01:05.127Z,93928.13
2018-09-30T10:03:32.657Z,93933.66
2018-09-30T10:06:00.457Z,93927.11
2018-09-30T10:08:27.993Z,93917.80
2018-09-30T10:10:55.562Z,93919.84
2018-09-30T10:13:23.202Z,93910.53
2018-09-30T10:15:50.740Z,93906.56
2018-09-30T10:18:18.313Z,93903.61
2018-09-30T10:20:45.873Z,93906.53
2018-09-30T10:23:13.658Z,93900.60
2018-09-30T10:25:41.233Z,93894.06
2018-09-30T10:28:08.779Z,93898.13
2018-09-30T10:30:36.353Z,93890.55
2018-09-30T10:33:03.938Z,93891.58
2018-09-30T10:35:31.794Z,93890.64
2018-09-30T10:37:59.386Z,93884.27
2018-09-30T10:40:26.966Z,93879.51
2018-09-30T10:42:54.581Z,93880.45
2018-09-30T10:45:22.119Z,93866.80
2018-09-30T10:47:49.709Z,93862.79
2018-09-30T10:50:17.594Z,93869.17
2018-09-30T10:52:45.200Z,93863.44
2018-09-30T10:55:12.855Z,93863.38
2018-09-30T10:57:40.417Z,93864.45
2018-09-30T11:00:08.003Z,93856.81
2018-09-30T11:02:35.642Z,93852.17
2018-09-30T11:05:03.238Z,93851.25
2018-09-30T11:07:31.070Z,93846.76
2018-09-30T11:09:58.671Z,93844.55
2018-09-30T11:12:26.229Z,93842.36
2018-09-30T11:14:53.863Z,93836.33
2018-09-30T11:17:21.404Z,93836.96
2018-09-30T11:19:48.952Z,93838.47
2018-09-30T11:22:16.570Z,93835.37
2018-09-30T11:24:44.147Z,93828.77
2018-09-30T11:27:11.695Z,93828.04
2018-09-30T11:29:39.267Z,93830.88
2018-09-30T11:32:06.866Z,93824.94
2018-09-30T11:34:34.476Z,93819.41
2018-09-30T11:37:02.019Z,93819.49
2018-09-30T11:39:29.564Z,93807.19
2018-09-30T11:41:57.130Z,93811.73
2018-09-30T11:44:24.682Z,93807.98
2018-09-30T11:46:52.570Z,93807.13
2018-09-30T11:49:20.106Z,93799.85
2018-09-30T11:51:47.639Z,93794.53
2018-09-30T11:54:15.267Z,93793.52
2018-09-30T11:56:42.778Z,93795.09
2018-09-30T11:59:10.342Z,93782.81
2018-09-30T12:01:37.918Z,93779.80
2018-09-30T12:04:05.767Z,93783.20
2018-09-30T12:06:33.602Z,93775.03
2018-09-30T12:09:01.206Z,93783.26
2018-09-30T12:11:28.814Z,93770.44
2018-09-30T12:13:56.412Z,93772.55
2018-09-30T12:16:23.981Z,93770.43
2018-09-30T12:18:51.887Z,93767.64
2018-09-30T12:21:19.385Z,93770.97
2018-09-30T12:23:46.954Z,93761.58
2018-09-30T12:26:14.521Z,93759.03
2018-09-30T12:28:42.057Z,93754.23
2018-09-30T12:31:09.609Z,93750.16
2018-09-30T12:33:37.163Z,93748.33
2018-09-30T12:36:05.003Z,93747.09
2018-09-30T12:38:32.584Z,93749.03
2018-09-30T12:41:00.163Z,93745.75
2018-09-30T12:43:27.709Z,93743.41
2018-09-30T12:45:55.267Z,93745.44
2018-09-30T12:48:22.802Z,93742.57
2018-09-30T12:50:50.577Z,93742.06
2018-09-30T12:53:18.158Z,93745.63
2018-09-30T12:55:45.721Z,93745.70
2018-09-30T12:58:13.649Z,93736.59
2018-09-30T13:00:41.173Z,93734.70
2018-09-30T13:03:08.712Z,93736.69
2018-09-30T13:05:36.611Z,93733.67
2018-09-30T13:08:04.176Z,93740.42
2018-09-30T13:10:31.718Z,93729.66
2018-09-30T13:12:59.581Z,93727.09
2018-09-30T13:15:27.700Z,93724.04
2018-09-30T13:17:55.468Z,93718.53
2018-09-30T13:20:23.083Z,93718.56
2018-09-30T13:22:50.650Z,93717.98
2018-09-30T13:25:18.196Z,93711.25
2018-09-30T13:27:45.737Z,93712.17
2018-09-30T13:30:13.282Z,93707.95
2018-09-30T13:32:40.852Z,93709.33
2018-09-30T13:35:08.664Z,93704.20
2018-09-30T13:37:36.198Z,93706.14
2018-09-30T13:40:04.135Z,93693.83
2018-09-30T13:42:31.645Z,93698.37
2018-09-30T13:44:59.659Z,93703.87
2018-09-30T13:47:27.291Z,93698.33
2018-09-30T13:49:54.842Z,93695.62
2018-09-30T13:52:25.408Z,93696.03
2018-09-30T13:54:53.196Z,93698.02
2018-09-30T13:57:20.773Z,93692.94
2018-09-30T13:59:48.359Z,93695.99
2018-09-30T14:02:15.938Z,93693.56
2018-09-30T14:04:43.820Z,93692.78
2018-09-30T14:07:11.352Z,93686.62
2018-09-30T14:09:38.935Z,93689.07
2018-09-30T14:12:06.505Z,93677.83
2018-09-30T14:14:34.069Z,93679.16
2018-09-30T14:17:01.635Z,93676.50
2018-09-30T14:19:29.171Z,93671.69
2018-09-30T14:21:56.731Z,93678.67
2018-09-30T14:24:24.283Z,93677.86
2018-09-30T14:26:51.904Z,93677.83
2018-09-30T14:29:19.489Z,93677.34
2018-09-30T14:31:47.062Z,93679.99
2018-09-30T14:34:14.680Z,93672.27
2018-09-30T14:36:43.129Z,93674.66
2018-09-30T14:39:12.509Z,93677.34
2018-09-30T14:41:40.063Z,93673.06
2018-09-30T14:44:08.126Z,93676.27
2018-09-30T14:46:36.144Z,93673.86
2018-09-30T14:49:03.729Z,93669.01
2018-09-30T14:51:31.313Z,93668.75
2018-09-30T14:53:58.865Z,93662.86
2018-09-30T14:56:26.443Z,93665.54
2018-09-30T14:58:54.022Z,93672.48
2018-09-30T15:01:21.630Z,93657.80
2018-09-30T15:03:49.196Z,93659.37
2018-09-30T15:06:16.747Z,93663.88
2018-09-30T15:08:44.567Z,93662.30
2018-09-30T15:11:12.158Z,93659.08
2018-09-30T15:13:39.715Z,93656.69
2018-09-30T15:16:07.654Z,93657.48
2018-09-30T15:18:35.222Z,93652.69
2018-09-30T15:21:02.792Z,93655.36
2018-09-30T15:23:30.367Z,93648.68
2018-09-30T15:25:58.058Z,93646.56
2018-09-30T15:28:25.620Z,93643.08
2018-09-30T15:30:53.217Z,93638.29
2018-09-30T15:33:20.779Z,93639.89
2018-09-30T15:35:48.351Z,93639.11
2018-09-30T15:38:16.212Z,93630.02
2018-09-30T15:40:43.762Z,93633.45
2018-09-30T15:43:11.306Z,93637.16
2018-09-30T15:45:38.885Z,93633.16
2018-09-30T15:48:06.487Z,93629.70
2018-09-30T15:50:34.060Z,93626.94
2018-09-30T15:53:01.634Z,93620.75
2018-09-30T15:55:29.246Z,93623.09
2018-09-30T15:57:56.831Z,93619.66
2018-09-30T16:00:24.426Z,93625.77
2018-09-30T16:02:52.037Z,93625.73
2018-09-30T16:05:19.650Z,93619.05
2018-09-30T16:07:47.214Z,93618.77
2018-09-30T16:10:14.814Z,93617.67
2018-09-30T16:12:42.381Z,93614.44
2018-09-30T16:15:09.959Z,93610.72
2018-09-30T16:17:37.548Z,93606.44
2018-09-30T16:20:05.234Z,93606.70
2018-09-30T16:22:32.863Z,93603.22
2018-09-30T16:25:00.419Z,93601.59
2018-09-30T16:27:27.992Z,93604.20
2018-09-30T16:29:55.588Z,93599.13
2018-09-30T16:32:23.164Z,93602.88
2018-09-30T16:34:50.723Z,93595.63
2018-09-30T16:37:18.338Z,93594.05
2018-09-30T16:39:45.882Z,93594.05
2018-09-30T16:42:13.498Z,93597.75
2018-09-30T16:44:41.055Z,93597.16
2018-09-30T16:47:08.642Z,93592.39
2018-09-30T16:49:36.211Z,93589.92
2018-09-30T16:52:03.818Z,93593.92
2018-09-30T16:54:31.415Z,93593.89
2018-09-30T16:56:58.975Z,93594.36
2018-09-30T16:59:26.566Z,93592.80
2018-09-30T17:01:54.122Z,93589.03
2018-09-30T17:04:21.730Z,93594.02
2018-09-30T17:06:49.300Z,93598.25
2018-09-30T17:09:16.991Z,93601.16
2018-09-30T17:11:44.573Z,93601.65
2018-09-30T17:14:12.144Z,93602.77
2018-09-30T17:16:39.758Z,93601.65
2018-09-30T17:19:07.405Z,93611.20
2018-09-30T17:21:34.999Z,93604.80
2018-09-30T17:24:02.548Z,93612.19
2018-09-30T17:26:30.146Z,93610.81
2018-09-30T17:28:57.769Z,93606.30
2018-09-30T17:31:25.408Z,93605.95
2018-09-30T17:33:52.948Z,93610.95
2018-09-30T17:36:20.530Z,93605.58
2018-09-30T17:38:48.083Z,93614.80
2018-09-30T17:41:15.694Z,93612.14
2018-09-30T17:43:43.377Z,93612.10
2018-09-30T17:46:10.986Z,93607.70
2018-09-30T17:48:38.634Z,93613.00
2018-09-30T17:51:06.292Z,93614.28
2018-09-30T17:53:33.835Z,93615.33
2018-09-30T17:56:01.439Z,93608.59
2018-09-30T17:58:29.031Z,93612.00
2018-09-30T18:00:56.620Z,93604.52
2018-09-30T18:03:24.192Z,93603.13
2018-09-30T18:05:51.762Z,93605.51
2018-09-30T18:08:19.331Z,93603.30
2018-09-30T18:10:46.971Z,93602.03
2018-09-30T18:13:14.520Z,93605.34
2018-09-30T18:15:42.184Z,93605.30
2018-09-30T18:18:09.775Z,93606.81
2018-09-30T18:20:37.407Z,93609.28
2018-09-30T18:23:05.118Z,93602.64
2018-09-30T18:25:32.702Z,93608.22
2018-09-30T18:28:00.254Z,93603.89
2018-09-30T18:30:27.845Z,93607.91
2018-09-30T18:32:55.454Z,93609.38
2018-09-30T18:35:23.054Z,93606.72
2018-09-30T18:37:50.898Z,93606.48
2018-09-30T18:40:19.020Z,93601.13
2018-09-30T18:42:46.526Z,93611.73
2018-09-30T18:45:14.101Z,93604.33
2018-09-30T18:47:41.715Z,93603.58
2018-09-30T18:50:09.376Z,93603.01
2018-09-30T18:52:36.949Z,93599.11
2018-09-30T18:55:04.601Z,93601.89
2018-09-30T18:57:32.175Z,93598.58
2018-09-30T18:59:59.795Z,93599.63
2018-09-30T19:02:27.390Z,93600.77
2018-09-30T19:04:55.004Z,93606.20
2018-09-30T19:07:22.611Z,93610.57
2018-09-30T19:09:50.196Z,93609.53
2018-09-30T19:12:17.815Z,93606.50
2018-09-30T19:14:45.395Z,93606.07
2018-09-30T19:17:12.999Z,93613.13
2018-09-30T19:19:40.618Z,93606.80
2018-09-30T19:22:08.357Z,93603.47
2018-09-30T19:24:35.943Z,93596.06
2018-09-30T19:27:03.585Z,93599.01
2018-09-30T19:29:31.145Z,93603.82
2018-09-30T19:31:58.748Z,93601.88
2018-09-30T19:34:26.320Z,93604.30
2018-09-30T19:36:53.924Z,93602.48
2018-09-30T19:39:21.535Z,93595.77
2018-09-30T19:41:49.220Z,93594.69
2018-09-30T19:44:16.716Z,93591.58
2018-09-30T19:46:44.267Z,93601.94
2018-09-30T19:49:11.846Z,93599.41
2018-09-30T19:51:39.447Z,93596.98
2018-09-30T19:54:07.043Z,93592.17
2018-09-30T19:56:34.584Z,93588.49
2018-09-30T19:59:02.167Z,93592.17
2018-09-30T20:01:29.776Z,93596.06
2018-09-30T20:03:57.344Z,93590.77
2018-09-30T20:06:24.989Z,93600.55
2018-09-30T20:08:52.535Z,93597.46
2018-09-30T20:11:20.143Z,93591.72
2018-09-30T20:13:47.739Z,93585.86
2018-09-30T20:16:15.279Z,93583.63
2018-09-30T20:18:42.855Z,93571.89
2018-09-30T20:21:10.463Z,93571.15
2018-09-30T20:23:38.362Z,93566.41
2018-09-30T20:26:05.962Z,93570.45
2018-09-30T20:28:33.542Z,93567.11
2018-09-30T20:31:01.129Z,93569.31
2018-09-30T20:33:28.725Z,93567.59
2018-09-30T20:35:56.310Z,93576.37
2018-09-30T20:38:23.881Z,93577.91
2018-09-30T20:40:51.427Z,93582.30
2018-09-30T20:43:18.994Z,93583.91
2018-09-30T20:45:46.544Z,93583.23
2018-09-30T20:48:14.207Z,93587.58
2018-09-30T20:50:41.751Z,93580.38
2018-09-30T20:53:09.347Z,93597.70
2018-09-30T20:55:36.873Z,93597.57
2018-09-30T20:58:04.426Z,93595.50
2018-09-30T21:00:32.067Z,93580.97
2018-09-30T21:02:59.891Z,93578.33
2018-09-30T21:05:33.211Z,93590.34
2018-09-30T21:08:01.730Z,93593.74
2018-09-30T21:10:29.350Z,93589.19
2018-09-30T21:12:56.892Z,93590.42
2018-09-30T21:15:24.513Z,93584.03
2018-09-30T21:17:52.055Z,93583.27
2018-09-30T21:20:19.614Z,93582.84
2018-09-30T21:22:47.155Z,93586.03
2018-09-30T21:25:14.716Z,93584.89
2018-09-30T21:27:42.246Z,93585.02
2018-09-30T21:30:09.785Z,93580.75
2018-09-30T21:32:37.334Z,93581.00
2018-09-30T21:35:04.912Z,93577.68
2018-09-30T21:37:32.453Z,93570.06
2018-09-30T21:40:00.011Z,93571.50
2018-09-30T21:42:27.610Z,93570.91
2018-09-30T21:44:55.135Z,93567.80
2018-09-30T21:47:22.705Z,93565.59
2018-09-30T21:49:50.241Z,93556.36
2018-09-30T21:52:17.831Z,93562.20
2018-09-30T21:54:45.342Z,93556.91
2018-09-30T21:57:12.912Z,93553.66
2018-09-30T21:59:40.467Z,93548.01
2018-09-30T22:02:08.014Z,93547.97
2018-09-30T22:04:35.589Z,93550.14
2018-09-30T22:07:03.147Z,93543.03
2018-09-30T22:09:31.167Z,93539.12
2018-09-30T22:11:58.718Z,93532.13
2018-09-30T22:14:26.314Z,93536.30
2018-09-30T22:16:53.880Z,93537.03
2018-09-30T22:19:21.761Z,93535.28
2018-09-30T22:21:49.240Z,93536.65
2018-09-30T22:24:16.806Z,93529.41
2018-09-30T22:26:44.355Z,93536.69
2018-09-30T22:29:11.887Z,93531.88
2018-09-30T22:31:39.454Z,93536.56
2018-09-30T22:34:07.054Z,93532.90
2018-09-30T22:36:34.590Z,93525.83
2018-09-30T22:39:02.225Z,93524.55
2018-09-30T22:41:29.759Z,93521.78
2018-09-30T22:43:57.326Z,93526.25
2018-09-30T22:46:24.971Z,93529.54
2018-09-30T22:48:52.491Z,93533.92
2018-09-30T22:51:20.027Z,93528.09
2018-09-30T22:53:47.572Z,93527.49
2018-09-30T22:56:15.422Z,93533.08
2018-09-30T22:58:42.997Z,93532.99
2018-09-30T23:01:10.521Z,93534.12
2018-09-30T23:03:38.346Z,93535.28
2018-09-30T23:06:05.975Z,93540.86
2018-09-30T23:08:33.566Z,93539.13
2018-09-30T23:11:01.153Z,93542.66
2018-09-30T23:13:28.679Z,93543.96
2018-09-30T23:15:56.238Z,93537.66
2018-09-30T23:18:23.804Z,93539.00
2018-09-30T23:20:51.606Z,93538.41
2018-09-30T23:23:19.191Z,93538.13
2018-09-30T23:25:46.742Z,93536.64
2018-09-30T23:28:14.324Z,93541.91
2018-09-30T23:30:41.842Z,93543.16
2018-09-30T23:33:09.416Z,93537.66
2018-09-30T23:35:36.954Z,93540.77
2018-09-30T23:38:04.492Z,93537.07
2018-09-30T23:40:32.389Z,93542.94
2018-09-30T23:42:59.935Z,93543.54
2018-09-30T23:45:27.459Z,93545.13
2018-09-30T23:47:55.055Z,93536.13
2018-09-30T23:50:22.578Z,93543.09
2018-09-30T23:52:50.142Z,93540.59
2018-09-30T23:55:17.653Z,93538.13
2018-09-30T23:57:45.220Z,93542.48
